sensor_id;sensor_type;location;lat;lon;timestamp;P1;durP1;ratioP1;P2;durP2;ratioP2
12435;SDS011;6282;51.440;6.938;2023-05-07T00:00:24;1.73;;;1.60;;
12435;SDS011;6282;51.440;6.938;2023-05-07T00:02:50;2.17;;;1.60;;
12435;SDS011;6282;51.440;6.938;2023-05-07T00:05:18;1.85;;;1.65;;
12435;SDS011;6282;51.440;6.938;2023-05-07T00:07:47;3.38;;;2.00;;
12435;SDS011;6282;51.440;6.938;2023-05-07T00:10:14;2.58;;;2.38;;
12435;SDS011;6282;51.440;6.938;2023-05-07T00:12:41;2.80;;;2.30;;
12435;SDS011;6282;51.440;6.938;2023-05-07T00:15:08;3.25;;;2.40;;
12435;SDS011;6282;51.440;6.938;2023-05-07T00:17:35;3.40;;;2.33;;
12435;SDS011;6282;51.440;6.938;2023-05-07T00:20:03;2.50;;;2.10;;
12435;SDS011;6282;51.440;6.938;2023-05-07T00:22:30;4.35;;;2.30;;
12435;SDS011;6282;51.440;6.938;2023-05-07T00:24:59;3.88;;;2.70;;
12435;SDS011;6282;51.440;6.938;2023-05-07T00:27:25;4.00;;;2.60;;
12435;SDS011;6282;51.440;6.938;2023-05-07T00:29:52;4.10;;;2.60;;
12435;SDS011;6282;51.440;6.938;2023-05-07T00:32:19;3.08;;;2.78;;
12435;SDS011;6282;51.440;6.938;2023-05-07T00:34:46;3.92;;;3.28;;
12435;SDS011;6282;51.440;6.938;2023-05-07T00:37:13;4.05;;;3.30;;
12435;SDS011;6282;51.440;6.938;2023-05-07T00:39:39;3.22;;;2.92;;
12435;SDS011;6282;51.440;6.938;2023-05-07T00:42:08;4.13;;;3.65;;
12435;SDS011;6282;51.440;6.938;2023-05-07T00:44:34;3.20;;;2.90;;
12435;SDS011;6282;51.440;6.938;2023-05-07T00:47:02;4.97;;;3.38;;
12435;SDS011;6282;51.440;6.938;2023-05-07T00:49:33;6.45;;;3.40;;
12435;SDS011;6282;51.440;6.938;2023-05-07T00:52:04;4.18;;;3.13;;
12435;SDS011;6282;51.440;6.938;2023-05-07T00:54:32;3.80;;;3.50;;
12435;SDS011;6282;51.440;6.938;2023-05-07T00:57:01;3.42;;;3.10;;
12435;SDS011;6282;51.440;6.938;2023-05-07T00:59:29;4.05;;;3.33;;
12435;SDS011;6282;51.440;6.938;2023-05-07T01:01:57;4.25;;;3.35;;
12435;SDS011;6282;51.440;6.938;2023-05-07T01:04:25;4.35;;;3.67;;
12435;SDS011;6282;51.440;6.938;2023-05-07T01:06:52;4.22;;;3.60;;
12435;SDS011;6282;51.440;6.938;2023-05-07T01:09:22;4.85;;;3.22;;
12435;SDS011;6282;51.440;6.938;2023-05-07T01:11:50;5.10;;;3.92;;
12435;SDS011;6282;51.440;6.938;2023-05-07T01:14:17;3.75;;;3.45;;
12435;SDS011;6282;51.440;6.938;2023-05-07T01:16:46;4.03;;;3.60;;
12435;SDS011;6282;51.440;6.938;2023-05-07T01:19:16;4.43;;;3.53;;
12435;SDS011;6282;51.440;6.938;2023-05-07T01:21:46;3.88;;;3.42;;
12435;SDS011;6282;51.440;6.938;2023-05-07T01:24:15;6.40;;;3.55;;
12435;SDS011;6282;51.440;6.938;2023-05-07T01:26:42;3.83;;;3.20;;
12435;SDS011;6282;51.440;6.938;2023-05-07T01:29:10;3.53;;;3.15;;
12435;SDS011;6282;51.440;6.938;2023-05-07T01:31:37;4.10;;;3.60;;
12435;SDS011;6282;51.440;6.938;2023-05-07T01:34:04;3.40;;;3.10;;
12435;SDS011;6282;51.440;6.938;2023-05-07T01:36:33;3.85;;;3.30;;
12435;SDS011;6282;51.440;6.938;2023-05-07T01:39:02;5.95;;;3.78;;
12435;SDS011;6282;51.440;6.938;2023-05-07T01:41:31;4.60;;;3.40;;
12435;SDS011;6282;51.440;6.938;2023-05-07T01:43:58;4.38;;;3.33;;
12435;SDS011;6282;51.440;6.938;2023-05-07T01:46:26;3.90;;;3.50;;
12435;SDS011;6282;51.440;6.938;2023-05-07T01:48:53;3.20;;;2.90;;
12435;SDS011;6282;51.440;6.938;2023-05-07T01:51:20;4.28;;;3.00;;
12435;SDS011;6282;51.440;6.938;2023-05-07T01:53:48;2.85;;;2.65;;
12435;SDS011;6282;51.440;6.938;2023-05-07T01:56:16;2.90;;;2.47;;
12435;SDS011;6282;51.440;6.938;2023-05-07T01:58:45;3.35;;;2.92;;
12435;SDS011;6282;51.440;6.938;2023-05-07T02:01:12;3.13;;;2.67;;
12435;SDS011;6282;51.440;6.938;2023-05-07T02:03:39;4.50;;;2.67;;
12435;SDS011;6282;51.440;6.938;2023-05-07T02:06:06;2.67;;;2.47;;
12435;SDS011;6282;51.440;6.938;2023-05-07T02:08:33;2.75;;;2.47;;
12435;SDS011;6282;51.440;6.938;2023-05-07T02:11:00;4.30;;;2.45;;
12435;SDS011;6282;51.440;6.938;2023-05-07T02:13:28;3.10;;;2.55;;
12435;SDS011;6282;51.440;6.938;2023-05-07T02:15:57;2.67;;;1.98;;
12435;SDS011;6282;51.440;6.938;2023-05-07T02:18:24;2.97;;;2.40;;
12435;SDS011;6282;51.440;6.938;2023-05-07T02:20:51;3.60;;;2.38;;
12435;SDS011;6282;51.440;6.938;2023-05-07T02:23:18;2.88;;;2.65;;
12435;SDS011;6282;51.440;6.938;2023-05-07T02:25:45;2.50;;;2.22;;
12435;SDS011;6282;51.440;6.938;2023-05-07T02:28:12;2.35;;;2.08;;
12435;SDS011;6282;51.440;6.938;2023-05-07T02:30:39;3.22;;;2.30;;
12435;SDS011;6282;51.440;6.938;2023-05-07T02:33:07;2.97;;;2.13;;
12435;SDS011;6282;51.440;6.938;2023-05-07T02:35:34;3.13;;;2.55;;
12435;SDS011;6282;51.440;6.938;2023-05-07T02:38:01;2.58;;;2.38;;
12435;SDS011;6282;51.440;6.938;2023-05-07T02:40:28;4.35;;;2.63;;
12435;SDS011;6282;51.440;6.938;2023-05-07T02:42:58;3.13;;;2.40;;
12435;SDS011;6282;51.440;6.938;2023-05-07T02:45:25;3.63;;;2.67;;
12435;SDS011;6282;51.440;6.938;2023-05-07T02:47:52;3.45;;;2.63;;
12435;SDS011;6282;51.440;6.938;2023-05-07T02:50:20;2.88;;;2.58;;
12435;SDS011;6282;51.440;6.938;2023-05-07T02:52:47;3.17;;;2.35;;
12435;SDS011;6282;51.440;6.938;2023-05-07T02:55:13;2.60;;;2.38;;
12435;SDS011;6282;51.440;6.938;2023-05-07T02:57:41;2.92;;;2.72;;
12435;SDS011;6282;51.440;6.938;2023-05-07T03:00:11;2.80;;;2.60;;
12435;SDS011;6282;51.440;6.938;2023-05-07T03:02:39;3.45;;;2.85;;
12435;SDS011;6282;51.440;6.938;2023-05-07T03:05:06;5.75;;;3.00;;
12435;SDS011;6282;51.440;6.938;2023-05-07T03:07:35;4.05;;;3.08;;
12435;SDS011;6282;51.440;6.938;2023-05-07T03:10:02;2.97;;;2.63;;
12435;SDS011;6282;51.440;6.938;2023-05-07T03:12:30;6.10;;;3.17;;
12435;SDS011;6282;51.440;6.938;2023-05-07T03:14:57;3.58;;;3.28;;
12435;SDS011;6282;51.440;6.938;2023-05-07T03:17:24;5.38;;;3.72;;
12435;SDS011;6282;51.440;6.938;2023-05-07T03:19:51;4.28;;;3.72;;
12435;SDS011;6282;51.440;6.938;2023-05-07T03:22:17;3.65;;;3.25;;
12435;SDS011;6282;51.440;6.938;2023-05-07T03:24:46;5.97;;;3.70;;
12435;SDS011;6282;51.440;6.938;2023-05-07T03:27:12;4.18;;;3.40;;
12435;SDS011;6282;51.440;6.938;2023-05-07T03:29:39;4.60;;;3.85;;
12435;SDS011;6282;51.440;6.938;2023-05-07T03:32:06;3.70;;;3.33;;
12435;SDS011;6282;51.440;6.938;2023-05-07T03:34:33;5.05;;;3.35;;
12435;SDS011;6282;51.440;6.938;2023-05-07T03:37:00;4.53;;;3.85;;
12435;SDS011;6282;51.440;6.938;2023-05-07T03:39:27;5.82;;;4.75;;
12435;SDS011;6282;51.440;6.938;2023-05-07T03:41:55;4.95;;;3.90;;
12435;SDS011;6282;51.440;6.938;2023-05-07T03:44:21;5.40;;;4.90;;
12435;SDS011;6282;51.440;6.938;2023-05-07T03:46:48;5.78;;;4.97;;
12435;SDS011;6282;51.440;6.938;2023-05-07T03:49:15;7.03;;;5.00;;
12435;SDS011;6282;51.440;6.938;2023-05-07T03:51:42;5.82;;;5.05;;
12435;SDS011;6282;51.440;6.938;2023-05-07T03:54:09;5.70;;;5.07;;
12435;SDS011;6282;51.440;6.938;2023-05-07T03:56:36;7.50;;;6.25;;
12435;SDS011;6282;51.440;6.938;2023-05-07T03:59:04;7.22;;;6.18;;
12435;SDS011;6282;51.440;6.938;2023-05-07T04:01:31;6.45;;;5.85;;
12435;SDS011;6282;51.440;6.938;2023-05-07T04:03:57;6.35;;;5.72;;
12435;SDS011;6282;51.440;6.938;2023-05-07T04:06:24;8.55;;;5.72;;
12435;SDS011;6282;51.440;6.938;2023-05-07T04:08:52;7.72;;;6.30;;
12435;SDS011;6282;51.440;6.938;2023-05-07T04:11:19;5.90;;;5.30;;
12435;SDS011;6282;51.440;6.938;2023-05-07T04:13:46;7.75;;;5.95;;
12435;SDS011;6282;51.440;6.938;2023-05-07T04:16:14;7.72;;;6.07;;
12435;SDS011;6282;51.440;6.938;2023-05-07T04:18:41;8.45;;;6.80;;
12435;SDS011;6282;51.440;6.938;2023-05-07T04:21:13;7.40;;;6.07;;
12435;SDS011;6282;51.440;6.938;2023-05-07T04:23:40;8.10;;;6.85;;
12435;SDS011;6282;51.440;6.938;2023-05-07T04:26:07;7.35;;;6.63;;
12435;SDS011;6282;51.440;6.938;2023-05-07T04:28:34;7.55;;;6.75;;
12435;SDS011;6282;51.440;6.938;2023-05-07T04:31:02;10.93;;;9.23;;
12435;SDS011;6282;51.440;6.938;2023-05-07T04:33:30;8.35;;;7.43;;
12435;SDS011;6282;51.440;6.938;2023-05-07T04:35:58;8.77;;;6.80;;
12435;SDS011;6282;51.440;6.938;2023-05-07T04:38:27;8.20;;;7.30;;
12435;SDS011;6282;51.440;6.938;2023-05-07T04:40:54;11.27;;;8.00;;
12435;SDS011;6282;51.440;6.938;2023-05-07T04:43:22;8.30;;;6.57;;
12435;SDS011;6282;51.440;6.938;2023-05-07T04:45:49;7.65;;;6.80;;
12435;SDS011;6282;51.440;6.938;2023-05-07T04:48:16;8.98;;;6.90;;
12435;SDS011;6282;51.440;6.938;2023-05-07T04:50:45;8.60;;;7.13;;
12435;SDS011;6282;51.440;6.938;2023-05-07T04:53:14;7.97;;;7.18;;
12435;SDS011;6282;51.440;6.938;2023-05-07T04:55:41;7.95;;;6.30;;
12435;SDS011;6282;51.440;6.938;2023-05-07T04:58:08;7.68;;;6.75;;
12435;SDS011;6282;51.440;6.938;2023-05-07T05:00:35;7.93;;;6.35;;
12435;SDS011;6282;51.440;6.938;2023-05-07T05:03:02;7.78;;;6.97;;
12435;SDS011;6282;51.440;6.938;2023-05-07T05:05:30;7.75;;;6.30;;
12435;SDS011;6282;51.440;6.938;2023-05-07T05:07:58;7.40;;;6.65;;
12435;SDS011;6282;51.440;6.938;2023-05-07T05:10:25;6.80;;;6.18;;
12435;SDS011;6282;51.440;6.938;2023-05-07T05:12:52;6.90;;;6.20;;
12435;SDS011;6282;51.440;6.938;2023-05-07T05:15:18;10.27;;;7.38;;
12435;SDS011;6282;51.440;6.938;2023-05-07T05:17:45;7.80;;;6.85;;
12435;SDS011;6282;51.440;6.938;2023-05-07T05:20:12;7.85;;;6.72;;
12435;SDS011;6282;51.440;6.938;2023-05-07T05:22:39;8.02;;;6.97;;
12435;SDS011;6282;51.440;6.938;2023-05-07T05:25:09;7.28;;;6.50;;
12435;SDS011;6282;51.440;6.938;2023-05-07T05:27:36;6.00;;;5.47;;
12435;SDS011;6282;51.440;6.938;2023-05-07T05:30:03;6.68;;;6.00;;
12435;SDS011;6282;51.440;6.938;2023-05-07T05:32:31;6.55;;;5.45;;
12435;SDS011;6282;51.440;6.938;2023-05-07T05:34:57;6.03;;;5.43;;
12435;SDS011;6282;51.440;6.938;2023-05-07T05:37:25;7.88;;;5.90;;
12435;SDS011;6282;51.440;6.938;2023-05-07T05:39:51;6.47;;;5.80;;
12435;SDS011;6282;51.440;6.938;2023-05-07T05:42:21;8.48;;;6.15;;
12435;SDS011;6282;51.440;6.938;2023-05-07T05:44:48;10.23;;;5.72;;
12435;SDS011;6282;51.440;6.938;2023-05-07T05:47:15;7.40;;;5.80;;
12435;SDS011;6282;51.440;6.938;2023-05-07T05:49:41;5.70;;;5.05;;
12435;SDS011;6282;51.440;6.938;2023-05-07T05:52:09;6.25;;;5.47;;
12435;SDS011;6282;51.440;6.938;2023-05-07T05:54:38;6.68;;;5.15;;
12435;SDS011;6282;51.440;6.938;2023-05-07T05:57:04;6.70;;;5.70;;
12435;SDS011;6282;51.440;6.938;2023-05-07T05:59:33;5.65;;;4.88;;
12435;SDS011;6282;51.440;6.938;2023-05-07T06:01:59;6.75;;;5.03;;
12435;SDS011;6282;51.440;6.938;2023-05-07T06:04:26;5.63;;;4.68;;
12435;SDS011;6282;51.440;6.938;2023-05-07T06:06:53;4.60;;;4.20;;
12435;SDS011;6282;51.440;6.938;2023-05-07T06:09:21;4.47;;;3.72;;
12435;SDS011;6282;51.440;6.938;2023-05-07T06:11:48;4.15;;;3.72;;
12435;SDS011;6282;51.440;6.938;2023-05-07T06:14:15;5.40;;;3.47;;
12435;SDS011;6282;51.440;6.938;2023-05-07T06:16:43;3.58;;;3.28;;
12435;SDS011;6282;51.440;6.938;2023-05-07T06:19:10;5.10;;;3.75;;
12435;SDS011;6282;51.440;6.938;2023-05-07T06:21:38;4.30;;;3.38;;
12435;SDS011;6282;51.440;6.938;2023-05-07T06:24:06;3.78;;;3.42;;
12435;SDS011;6282;51.440;6.938;2023-05-07T06:26:33;3.33;;;3.03;;
12435;SDS011;6282;51.440;6.938;2023-05-07T06:29:00;3.72;;;3.13;;
12435;SDS011;6282;51.440;6.938;2023-05-07T06:31:29;3.95;;;2.97;;
12435;SDS011;6282;51.440;6.938;2023-05-07T06:33:58;5.20;;;3.00;;
12435;SDS011;6282;51.440;6.938;2023-05-07T06:36:27;3.00;;;2.70;;
12435;SDS011;6282;51.440;6.938;2023-05-07T06:38:53;2.65;;;2.42;;
12435;SDS011;6282;51.440;6.938;2023-05-07T06:41:20;3.33;;;2.58;;
12435;SDS011;6282;51.440;6.938;2023-05-07T06:43:47;2.55;;;2.35;;
12435;SDS011;6282;51.440;6.938;2023-05-07T06:46:14;3.40;;;2.10;;
12435;SDS011;6282;51.440;6.938;2023-05-07T06:48:41;2.40;;;2.10;;
12435;SDS011;6282;51.440;6.938;2023-05-07T06:51:09;2.58;;;2.38;;
12435;SDS011;6282;51.440;6.938;2023-05-07T06:53:36;2.45;;;2.25;;
12435;SDS011;6282;51.440;6.938;2023-05-07T06:56:03;2.42;;;2.22;;
12435;SDS011;6282;51.440;6.938;2023-05-07T06:58:30;2.85;;;2.45;;
12435;SDS011;6282;51.440;6.938;2023-05-07T07:00:57;2.15;;;1.95;;
12435;SDS011;6282;51.440;6.938;2023-05-07T07:03:24;3.55;;;1.98;;
12435;SDS011;6282;51.440;6.938;2023-05-07T07:05:51;4.10;;;1.85;;
12435;SDS011;6282;51.440;6.938;2023-05-07T07:08:19;2.25;;;1.80;;
12435;SDS011;6282;51.440;6.938;2023-05-07T07:10:47;1.60;;;1.50;;
12435;SDS011;6282;51.440;6.938;2023-05-07T07:13:14;1.70;;;1.60;;
12435;SDS011;6282;51.440;6.938;2023-05-07T07:15:41;2.40;;;2.20;;
12435;SDS011;6282;51.440;6.938;2023-05-07T07:18:08;2.00;;;1.65;;
12435;SDS011;6282;51.440;6.938;2023-05-07T07:20:35;2.55;;;1.58;;
12435;SDS011;6282;51.440;6.938;2023-05-07T07:23:02;2.00;;;1.80;;
12435;SDS011;6282;51.440;6.938;2023-05-07T07:25:30;1.73;;;1.55;;
12435;SDS011;6282;51.440;6.938;2023-05-07T07:27:57;1.63;;;1.33;;
12435;SDS011;6282;51.440;6.938;2023-05-07T07:30:24;1.55;;;1.45;;
12435;SDS011;6282;51.440;6.938;2023-05-07T07:32:51;1.60;;;1.50;;
12435;SDS011;6282;51.440;6.938;2023-05-07T07:35:18;1.55;;;1.25;;
12435;SDS011;6282;51.440;6.938;2023-05-07T07:37:44;1.50;;;1.40;;
12435;SDS011;6282;51.440;6.938;2023-05-07T07:40:12;1.60;;;1.50;;
12435;SDS011;6282;51.440;6.938;2023-05-07T07:42:41;2.10;;;1.77;;
12435;SDS011;6282;51.440;6.938;2023-05-07T07:45:08;2.55;;;2.13;;
12435;SDS011;6282;51.440;6.938;2023-05-07T07:47:35;1.90;;;1.80;;
12435;SDS011;6282;51.440;6.938;2023-05-07T07:50:02;1.67;;;1.50;;
12435;SDS011;6282;51.440;6.938;2023-05-07T07:52:29;2.65;;;1.92;;
12435;SDS011;6282;51.440;6.938;2023-05-07T07:54:56;3.58;;;1.92;;
12435;SDS011;6282;51.440;6.938;2023-05-07T07:57:22;1.70;;;1.60;;
12435;SDS011;6282;51.440;6.938;2023-05-07T07:59:51;1.63;;;1.52;;
12435;SDS011;6282;51.440;6.938;2023-05-07T08:02:17;1.60;;;1.50;;
12435;SDS011;6282;51.440;6.938;2023-05-07T08:04:45;1.80;;;1.70;;
12435;SDS011;6282;51.440;6.938;2023-05-07T08:07:12;2.30;;;1.73;;
12435;SDS011;6282;51.440;6.938;2023-05-07T08:09:39;2.15;;;1.95;;
12435;SDS011;6282;51.440;6.938;2023-05-07T08:12:06;2.90;;;2.10;;
12435;SDS011;6282;51.440;6.938;2023-05-07T08:14:33;2.53;;;1.88;;
12435;SDS011;6282;51.440;6.938;2023-05-07T08:17:02;2.20;;;2.00;;
12435;SDS011;6282;51.440;6.938;2023-05-07T08:19:32;2.78;;;1.67;;
12435;SDS011;6282;51.440;6.938;2023-05-07T08:21:59;1.65;;;1.55;;
12435;SDS011;6282;51.440;6.938;2023-05-07T08:24:26;2.58;;;2.10;;
12435;SDS011;6282;51.440;6.938;2023-05-07T08:26:53;1.88;;;1.77;;
12435;SDS011;6282;51.440;6.938;2023-05-07T08:29:20;2.00;;;1.70;;
12435;SDS011;6282;51.440;6.938;2023-05-07T08:31:46;1.75;;;1.65;;
12435;SDS011;6282;51.440;6.938;2023-05-07T08:34:15;1.70;;;1.50;;
12435;SDS011;6282;51.440;6.938;2023-05-07T08:36:41;1.50;;;1.40;;
12435;SDS011;6282;51.440;6.938;2023-05-07T08:39:08;1.67;;;1.58;;
12435;SDS011;6282;51.440;6.938;2023-05-07T08:41:35;1.48;;;1.38;;
12435;SDS011;6282;51.440;6.938;2023-05-07T08:44:02;1.60;;;1.50;;
12435;SDS011;6282;51.440;6.938;2023-05-07T08:46:32;1.40;;;1.30;;
12435;SDS011;6282;51.440;6.938;2023-05-07T08:48:59;3.15;;;1.38;;
12435;SDS011;6282;51.440;6.938;2023-05-07T08:51:27;2.42;;;1.60;;
12435;SDS011;6282;51.440;6.938;2023-05-07T08:53:55;1.50;;;1.40;;
12435;SDS011;6282;51.440;6.938;2023-05-07T08:56:22;1.88;;;1.63;;
12435;SDS011;6282;51.440;6.938;2023-05-07T09:28:45;1.30;;;1.20;;
12435;SDS011;6282;51.440;6.938;2023-05-07T09:31:12;1.50;;;1.40;;
12435;SDS011;6282;51.440;6.938;2023-05-07T09:33:39;1.60;;;1.50;;
12435;SDS011;6282;51.440;6.938;2023-05-07T09:36:07;1.00;;;1.00;;
12435;SDS011;6282;51.440;6.938;2023-05-07T09:38:36;1.33;;;1.23;;
12435;SDS011;6282;51.440;6.938;2023-05-07T09:41:03;1.27;;;1.17;;
12435;SDS011;6282;51.440;6.938;2023-05-07T09:43:32;1.00;;;1.00;;
12435;SDS011;6282;51.440;6.938;2023-05-07T09:46:03;1.23;;;1.15;;
12435;SDS011;6282;51.440;6.938;2023-05-07T09:48:34;2.15;;;1.30;;
12435;SDS011;6282;51.440;6.938;2023-05-07T09:51:05;1.88;;;1.10;;
12435;SDS011;6282;51.440;6.938;2023-05-07T09:53:37;1.27;;;1.17;;
12435;SDS011;6282;51.440;6.938;2023-05-07T09:56:06;1.25;;;1.17;;
12435;SDS011;6282;51.440;6.938;2023-05-07T09:58:33;1.23;;;1.13;;
12435;SDS011;6282;51.440;6.938;2023-05-07T10:01:05;1.75;;;1.25;;
12435;SDS011;6282;51.440;6.938;2023-05-07T10:03:32;1.20;;;1.10;;
12435;SDS011;6282;51.440;6.938;2023-05-07T10:06:01;1.23;;;1.23;;
12435;SDS011;6282;51.440;6.938;2023-05-07T10:08:30;1.05;;;1.00;;
12435;SDS011;6282;51.440;6.938;2023-05-07T10:10:57;1.95;;;1.30;;
12435;SDS011;6282;51.440;6.938;2023-05-07T10:25:40;1.25;;;1.10;;
12435;SDS011;6282;51.440;6.938;2023-05-07T10:28:07;1.50;;;1.40;;
12435;SDS011;6282;51.440;6.938;2023-05-07T10:30:38;1.27;;;1.25;;
12435;SDS011;6282;51.440;6.938;2023-05-07T10:33:13;2.67;;;1.25;;
12435;SDS011;6282;51.440;6.938;2023-05-07T10:35:44;1.10;;;1.10;;
12435;SDS011;6282;51.440;6.938;2023-05-07T10:52:47;1.48;;;1.38;;
12435;SDS011;6282;51.440;6.938;2023-05-07T10:55:43;1.50;;;1.13;;
12435;SDS011;6282;51.440;6.938;2023-05-07T10:58:23;1.20;;;1.10;;
12435;SDS011;6282;51.440;6.938;2023-05-07T11:00:55;1.25;;;1.15;;
12435;SDS011;6282;51.440;6.938;2023-05-07T11:03:24;1.55;;;1.20;;
12435;SDS011;6282;51.440;6.938;2023-05-07T11:08:54;1.73;;;1.20;;
12435;SDS011;6282;51.440;6.938;2023-05-07T11:14:11;1.08;;;1.08;;
12435;SDS011;6282;51.440;6.938;2023-05-07T11:16:39;1.55;;;1.45;;
12435;SDS011;6282;51.440;6.938;2023-05-07T11:19:07;1.70;;;1.60;;
12435;SDS011;6282;51.440;6.938;2023-05-07T11:21:35;1.38;;;1.27;;
12435;SDS011;6282;51.440;6.938;2023-05-07T11:24:05;2.33;;;1.60;;
12435;SDS011;6282;51.440;6.938;2023-05-07T11:26:43;1.23;;;1.17;;
12435;SDS011;6282;51.440;6.938;2023-05-07T11:29:11;1.67;;;1.40;;
12435;SDS011;6282;51.440;6.938;2023-05-07T11:31:39;1.67;;;1.40;;
12435;SDS011;6282;51.440;6.938;2023-05-07T11:34:07;1.55;;;1.45;;
12435;SDS011;6282;51.440;6.938;2023-05-07T11:48:58;1.58;;;1.38;;
12435;SDS011;6282;51.440;6.938;2023-05-07T11:51:27;1.30;;;1.20;;
12435;SDS011;6282;51.440;6.938;2023-05-07T11:53:55;1.45;;;1.35;;
12435;SDS011;6282;51.440;6.938;2023-05-07T11:56:21;2.65;;;1.90;;
12435;SDS011;6282;51.440;6.938;2023-05-07T11:58:49;1.90;;;1.80;;
12435;SDS011;6282;51.440;6.938;2023-05-07T12:01:17;1.52;;;1.42;;
12435;SDS011;6282;51.440;6.938;2023-05-07T12:03:44;1.48;;;1.38;;
12435;SDS011;6282;51.440;6.938;2023-05-07T12:06:13;1.80;;;1.70;;
12435;SDS011;6282;51.440;6.938;2023-05-07T12:08:42;1.95;;;1.77;;
12435;SDS011;6282;51.440;6.938;2023-05-07T12:11:10;3.60;;;2.88;;
12435;SDS011;6282;51.440;6.938;2023-05-07T12:13:41;2.47;;;1.60;;
12435;SDS011;6282;51.440;6.938;2023-05-07T12:31:23;2.17;;;1.45;;
12435;SDS011;6282;51.440;6.938;2023-05-07T12:33:52;1.95;;;1.42;;
12435;SDS011;6282;51.440;6.938;2023-05-07T12:36:19;2.55;;;1.75;;
12435;SDS011;6282;51.440;6.938;2023-05-07T12:38:46;2.15;;;1.80;;
12435;SDS011;6282;51.440;6.938;2023-05-07T12:41:15;1.85;;;1.67;;
12435;SDS011;6282;51.440;6.938;2023-05-07T12:43:43;1.70;;;1.60;;
12435;SDS011;6282;51.440;6.938;2023-05-07T12:46:11;2.25;;;1.92;;
12435;SDS011;6282;51.440;6.938;2023-05-07T12:48:41;1.58;;;1.48;;
12435;SDS011;6282;51.440;6.938;2023-05-07T12:51:10;1.67;;;1.50;;
12435;SDS011;6282;51.440;6.938;2023-05-07T12:53:39;3.22;;;1.70;;
12435;SDS011;6282;51.440;6.938;2023-05-07T12:56:07;1.85;;;1.75;;
12435;SDS011;6282;51.440;6.938;2023-05-07T12:58:34;2.65;;;1.70;;
12435;SDS011;6282;51.440;6.938;2023-05-07T13:01:04;2.10;;;1.85;;
12435;SDS011;6282;51.440;6.938;2023-05-07T13:03:33;2.17;;;1.80;;
12435;SDS011;6282;51.440;6.938;2023-05-07T13:06:02;1.75;;;1.65;;
12435;SDS011;6282;51.440;6.938;2023-05-07T13:08:31;2.72;;;2.20;;
12435;SDS011;6282;51.440;6.938;2023-05-07T13:11:00;2.17;;;1.63;;
12435;SDS011;6282;51.440;6.938;2023-05-07T13:13:29;2.17;;;1.92;;
12435;SDS011;6282;51.440;6.938;2023-05-07T13:15:56;2.35;;;2.15;;
12435;SDS011;6282;51.440;6.938;2023-05-07T13:18:24;2.40;;;1.92;;
12435;SDS011;6282;51.440;6.938;2023-05-07T13:20:51;2.50;;;2.30;;
12435;SDS011;6282;51.440;6.938;2023-05-07T13:23:20;2.47;;;2.28;;
12435;SDS011;6282;51.440;6.938;2023-05-07T13:25:47;2.65;;;2.10;;
12435;SDS011;6282;51.440;6.938;2023-05-07T13:28:14;4.35;;;2.20;;
12435;SDS011;6282;51.440;6.938;2023-05-07T13:30:41;2.72;;;2.35;;
12435;SDS011;6282;51.440;6.938;2023-05-07T13:33:08;3.50;;;2.42;;
12435;SDS011;6282;51.440;6.938;2023-05-07T13:35:35;3.45;;;2.80;;
12435;SDS011;6282;51.440;6.938;2023-05-07T13:38:02;3.88;;;3.05;;
12435;SDS011;6282;51.440;6.938;2023-05-07T13:40:30;4.00;;;3.10;;
12435;SDS011;6282;51.440;6.938;2023-05-07T13:42:57;3.47;;;3.17;;
12435;SDS011;6282;51.440;6.938;2023-05-07T13:45:26;3.67;;;3.28;;
12435;SDS011;6282;51.440;6.938;2023-05-07T13:47:55;3.95;;;3.38;;
12435;SDS011;6282;51.440;6.938;2023-05-07T13:50:23;4.00;;;3.60;;
12435;SDS011;6282;51.440;6.938;2023-05-07T13:52:51;3.65;;;3.35;;
12435;SDS011;6282;51.440;6.938;2023-05-07T13:55:19;3.72;;;3.30;;
12435;SDS011;6282;51.440;6.938;2023-05-07T13:57:53;3.78;;;3.40;;
12435;SDS011;6282;51.440;6.938;2023-05-07T14:00:21;5.70;;;3.65;;
12435;SDS011;6282;51.440;6.938;2023-05-07T14:02:49;4.03;;;3.63;;
12435;SDS011;6282;51.440;6.938;2023-05-07T14:05:15;4.70;;;3.90;;
12435;SDS011;6282;51.440;6.938;2023-05-07T14:07:43;4.03;;;3.63;;
12435;SDS011;6282;51.440;6.938;2023-05-07T14:10:10;5.78;;;4.43;;
12435;SDS011;6282;51.440;6.938;2023-05-07T14:12:38;4.72;;;4.32;;
12435;SDS011;6282;51.440;6.938;2023-05-07T14:15:07;4.43;;;4.03;;
12435;SDS011;6282;51.440;6.938;2023-05-07T14:17:34;4.95;;;4.45;;
12435;SDS011;6282;51.440;6.938;2023-05-07T14:20:01;5.20;;;4.47;;
12435;SDS011;6282;51.440;6.938;2023-05-07T14:22:28;4.88;;;4.25;;
12435;SDS011;6282;51.440;6.938;2023-05-07T14:24:55;4.90;;;4.22;;
12435;SDS011;6282;51.440;6.938;2023-05-07T14:27:22;4.50;;;4.10;;
12435;SDS011;6282;51.440;6.938;2023-05-07T14:29:49;4.85;;;4.40;;
12435;SDS011;6282;51.440;6.938;2023-05-07T14:32:17;4.53;;;4.13;;
12435;SDS011;6282;51.440;6.938;2023-05-07T14:34:44;4.28;;;3.65;;
12435;SDS011;6282;51.440;6.938;2023-05-07T14:37:11;3.70;;;3.40;;
12435;SDS011;6282;51.440;6.938;2023-05-07T14:39:38;5.63;;;4.53;;
12435;SDS011;6282;51.440;6.938;2023-05-07T14:42:05;4.40;;;3.85;;
12435;SDS011;6282;51.440;6.938;2023-05-07T14:44:34;3.92;;;3.63;;
12435;SDS011;6282;51.440;6.938;2023-05-07T14:47:01;4.93;;;4.05;;
12435;SDS011;6282;51.440;6.938;2023-05-07T14:49:29;5.25;;;4.50;;
12435;SDS011;6282;51.440;6.938;2023-05-07T14:51:56;6.78;;;5.07;;
12435;SDS011;6282;51.440;6.938;2023-05-07T14:54:24;6.50;;;4.63;;
12435;SDS011;6282;51.440;6.938;2023-05-07T14:56:51;5.50;;;4.72;;
12435;SDS011;6282;51.440;6.938;2023-05-07T14:59:18;7.13;;;5.13;;
12435;SDS011;6282;51.440;6.938;2023-05-07T15:01:46;6.85;;;5.47;;
12435;SDS011;6282;51.440;6.938;2023-05-07T15:04:13;5.97;;;5.28;;
12435;SDS011;6282;51.440;6.938;2023-05-07T15:06:41;5.95;;;5.35;;
12435;SDS011;6282;51.440;6.938;2023-05-07T15:09:08;7.18;;;5.68;;
12435;SDS011;6282;51.440;6.938;2023-05-07T15:11:35;7.60;;;5.40;;
12435;SDS011;6282;51.440;6.938;2023-05-07T15:14:01;8.52;;;5.90;;
12435;SDS011;6282;51.440;6.938;2023-05-07T15:16:28;6.38;;;5.47;;
12435;SDS011;6282;51.440;6.938;2023-05-07T15:18:55;6.07;;;5.05;;
12435;SDS011;6282;51.440;6.938;2023-05-07T15:21:22;6.15;;;5.55;;
12435;SDS011;6282;51.440;6.938;2023-05-07T15:23:50;6.95;;;5.30;;
12435;SDS011;6282;51.440;6.938;2023-05-07T15:26:17;5.97;;;5.38;;
12435;SDS011;6282;51.440;6.938;2023-05-07T15:28:44;8.68;;;6.22;;
12435;SDS011;6282;51.440;6.938;2023-05-07T15:31:11;7.40;;;5.70;;
12435;SDS011;6282;51.440;6.938;2023-05-07T15:33:38;6.60;;;5.97;;
12435;SDS011;6282;51.440;6.938;2023-05-07T15:36:05;5.78;;;5.18;;
12435;SDS011;6282;51.440;6.938;2023-05-07T15:38:32;6.32;;;5.72;;
12435;SDS011;6282;51.440;6.938;2023-05-07T15:41:01;7.47;;;5.90;;
12435;SDS011;6282;51.440;6.938;2023-05-07T15:43:28;6.20;;;5.60;;
12435;SDS011;6282;51.440;6.938;2023-05-07T15:45:55;8.00;;;5.70;;
12435;SDS011;6282;51.440;6.938;2023-05-07T15:48:22;7.30;;;6.10;;
12435;SDS011;6282;51.440;6.938;2023-05-07T15:50:49;8.18;;;6.10;;
12435;SDS011;6282;51.440;6.938;2023-05-07T15:53:16;8.10;;;5.95;;
12435;SDS011;6282;51.440;6.938;2023-05-07T15:55:42;6.88;;;6.25;;
12435;SDS011;6282;51.440;6.938;2023-05-07T15:58:11;6.68;;;5.97;;
12435;SDS011;6282;51.440;6.938;2023-05-07T16:00:37;7.28;;;6.07;;
12435;SDS011;6282;51.440;6.938;2023-05-07T16:03:05;6.97;;;6.28;;
12435;SDS011;6282;51.440;6.938;2023-05-07T16:05:33;6.85;;;6.15;;
12435;SDS011;6282;51.440;6.938;2023-05-07T16:07:59;7.20;;;6.22;;
12435;SDS011;6282;51.440;6.938;2023-05-07T16:10:27;6.80;;;6.07;;
12435;SDS011;6282;51.440;6.938;2023-05-07T16:12:54;7.90;;;5.82;;
12435;SDS011;6282;51.440;6.938;2023-05-07T16:15:23;6.55;;;5.75;;
12435;SDS011;6282;51.440;6.938;2023-05-07T16:17:50;6.80;;;5.60;;
12435;SDS011;6282;51.440;6.938;2023-05-07T16:20:21;6.68;;;5.38;;
12435;SDS011;6282;51.440;6.938;2023-05-07T16:22:50;5.75;;;5.18;;
12435;SDS011;6282;51.440;6.938;2023-05-07T16:25:17;5.90;;;4.85;;
12435;SDS011;6282;51.440;6.938;2023-05-07T16:27:44;6.18;;;4.68;;
12435;SDS011;6282;51.440;6.938;2023-05-07T16:30:11;5.75;;;4.22;;
12435;SDS011;6282;51.440;6.938;2023-05-07T16:32:39;5.00;;;4.28;;